createdAt,value
2024-04-23T00:00:13.802Z,99538.08
2024-04-23T00:03:32.490Z,99537.33
2024-04-23T00:06:50.091Z,99544.73
2024-04-23T00:10:08.243Z,99536.08
2024-04-23T00:13:25.754Z,99544.81
2024-04-23T00:16:43.306Z,99534.17
2024-04-23T00:20:00.934Z,99532.69
2024-04-23T00:23:19.080Z,99530.57
2024-04-23T00:26:36.536Z,99528.67
2024-04-23T00:29:53.976Z,99524.55
2024-04-23T00:33:12.771Z,99522.98
2024-04-23T00:36:30.476Z,99518.75
2024-04-23T00:39:47.915Z,99515.16
2024-04-23T00:43:05.465Z,99517.59
2024-04-23T00:46:23.439Z,99500.56
2024-04-23T00:49:41.334Z,99490.23
2024-04-23T00:52:59.416Z,99513.27
2024-04-23T00:56:19.308Z,99518.25
2024-04-23T00:59:36.953Z,99508.44
2024-04-23T01:02:54.452Z,99501.83
2024-04-23T01:06:12.534Z,99516.02
2024-04-23T01:09:30.517Z,99510.40
2024-04-23T01:12:47.903Z,99508.67
2024-04-23T01:16:05.840Z,99505.98
2024-04-23T01:19:29.408Z,99510.61
2024-04-23T01:22:53.472Z,99499.39
2024-04-23T01:26:14.771Z,99495.38
2024-04-23T01:29:33.054Z,99501.74
2024-04-23T01:32:52.207Z,99496.28
2024-04-23T01:36:10.380Z,99495.02
2024-04-23T01:39:28.077Z,99482.06
2024-04-23T01:42:46.386Z,99483.44
2024-04-23T01:46:04.552Z,99485.44
2024-04-23T01:49:22.167Z,99489.64
2024-04-23T01:52:40.111Z,99484.17
2024-04-23T01:55:57.875Z,99488.64
2024-04-23T01:59:15.701Z,99482.39
2024-04-23T02:02:33.746Z,99469.91
2024-04-23T02:05:51.503Z,99472.66
2024-04-23T02:09:09.341Z,99478.34
2024-04-23T02:12:29.493Z,99474.78
2024-04-23T02:15:46.969Z,99477.71
2024-04-23T02:19:04.136Z,99471.59
2024-04-23T02:22:21.999Z,99476.22
2024-04-23T02:25:39.962Z,99471.17
2024-04-23T02:28:57.283Z,99471.59
2024-04-23T02:32:15.306Z,99463.56
2024-04-23T02:35:32.935Z,99465.45
2024-04-23T02:38:50.462Z,99463.81
2024-04-23T02:42:08.768Z,99463.16
2024-04-23T02:45:29.189Z,99456.84
2024-04-23T02:48:45.175Z,99449.75
2024-04-23T02:52:05.563Z,99446.92
2024-04-23T02:55:23.129Z,99446.52
2024-04-23T02:58:40.623Z,99439.53
2024-04-23T03:02:03.472Z,99438.48
2024-04-23T03:05:21.081Z,99438.68
2024-04-23T03:08:38.602Z,99434.36
2024-04-23T03:12:02.831Z,99428.13
2024-04-23T03:15:20.487Z,99427.20
2024-04-23T03:18:38.016Z,99428.79
2024-04-23T03:22:03.490Z,99414.86
2024-04-23T03:25:20.834Z,99414.45
2024-04-23T03:28:38.375Z,99411.70
2024-04-23T03:31:58.048Z,99408.09
2024-04-23T03:35:16.246Z,99400.73
2024-04-23T03:38:33.721Z,99399.69
2024-04-23T03:42:00.510Z,99403.06
2024-04-23T03:45:18.099Z,99401.87
2024-04-23T03:48:35.661Z,99400.92
2024-04-23T03:51:53.230Z,99410.97
2024-04-23T03:55:10.948Z,99401.78
2024-04-23T03:58:28.512Z,99405.36
2024-04-23T04:01:46.183Z,99406.63
2024-04-23T04:05:22.554Z,99416.25
2024-04-23T04:08:40.677Z,99417.19
2024-04-23T04:11:58.334Z,99409.59
2024-04-23T04:15:16.527Z,99408.73
2024-04-23T04:18:34.287Z,99410.10
2024-04-23T04:21:51.884Z,99422.36
2024-04-23T04:25:09.296Z,99423.94
2024-04-23T04:28:27.014Z,99423.10
2024-04-23T04:31:44.605Z,99433.43
2024-04-23T04:35:02.230Z,99429.22
2024-04-23T04:38:19.747Z,99431.33
2024-04-23T04:41:37.194Z,99428.16
2024-04-23T04:44:54.601Z,99423.92
2024-04-23T04:48:12.843Z,99417.17
2024-04-23T04:51:30.376Z,99408.32
2024-04-23T04:54:47.731Z,99412.75
2024-04-23T04:58:05.585Z,99404.59
2024-04-23T05:01:22.990Z,99405.99
2024-04-23T05:04:40.784Z,99404.71
2024-04-23T05:07:58.387Z,99403.00
2024-04-23T05:11:16.262Z,99402.37
2024-04-23T05:14:33.804Z,99405.64
2024-04-23T05:17:51.390Z,99401.93
2024-04-23T05:21:09.095Z,99398.09
2024-04-23T05:24:26.388Z,99396.77
2024-04-23T05:27:43.837Z,99403.34
2024-04-23T05:31:11.208Z,99400.43
2024-04-23T05:34:28.774Z,99393.03
2024-04-23T05:37:46.375Z,99388.40
2024-04-23T05:41:04.212Z,99388.90
2024-04-23T05:44:23.470Z,99387.25
2024-04-23T05:47:54.122Z,99385.28
2024-04-23T05:52:15.864Z,99370.59
2024-04-23T05:55:49.083Z,99367.77
2024-04-23T05:59:05.821Z,99360.69
2024-04-23T06:02:23.771Z,99346.70
2024-04-23T06:05:41.851Z,99353.69
2024-04-23T06:08:59.655Z,99343.75
2024-04-23T06:12:18.037Z,99345.26
2024-04-23T06:15:36.072Z,99335.50
2024-04-23T06:18:53.954Z,99336.91
2024-04-23T06:22:11.870Z,99332.29
2024-04-23T06:25:30.025Z,99332.25
2024-04-23T06:28:47.701Z,99322.34
2024-04-23T06:32:05.400Z,99312.16
2024-04-23T06:35:23.262Z,99300.96
2024-04-23T06:38:40.852Z,99299.30
2024-04-23T06:41:58.684Z,99301.38
2024-04-23T16:47:52.775Z,98575.59
2024-04-23T16:51:10.568Z,98572.42
2024-04-23T16:54:28.570Z,98568.30
2024-04-23T16:57:46.164Z,98559.59
2024-04-23T17:01:03.437Z,98557.04
2024-04-23T17:04:20.885Z,98561.33
2024-04-23T17:07:38.702Z,98556.98
2024-04-23T17:10:56.151Z,98555.80
2024-04-23T17:14:13.667Z,98562.13
2024-04-23T17:17:31.233Z,98569.53
2024-04-23T17:20:54.033Z,98565.36
2024-04-23T17:24:12.448Z,98568.36
2024-04-23T17:27:29.676Z,98567.70
2024-04-23T17:30:50.105Z,98563.89
2024-04-23T17:34:08.263Z,98566.39
2024-04-23T17:37:25.437Z,98562.88
2024-04-23T17:40:46.846Z,98575.50
2024-04-23T17:44:04.678Z,98556.19
2024-04-23T17:47:22.165Z,98563.53
2024-04-23T17:50:39.353Z,98560.50
2024-04-23T17:54:03.003Z,98553.34
2024-04-23T17:57:20.593Z,98553.01
2024-04-23T18:00:35.431Z,98552.44
2024-04-23T18:03:53.589Z,98553.11
2024-04-23T18:07:10.800Z,98552.80
2024-04-23T18:10:28.037Z,98550.14
2024-04-23T18:13:45.490Z,98547.80
2024-04-23T18:17:04.406Z,98546.11
2024-04-23T18:20:21.976Z,98544.47
2024-04-23T18:23:41.750Z,98551.89
2024-04-23T18:26:58.950Z,98544.07
2024-04-23T18:30:18.230Z,98550.44
2024-04-23T18:33:36.290Z,98556.88
2024-04-23T18:36:53.729Z,98563.72
2024-04-23T18:40:11.803Z,98557.05
2024-04-23T18:43:28.874Z,98567.02
2024-04-23T18:46:44.045Z,98573.66
2024-04-23T18:50:01.231Z,98576.28
2024-04-23T18:53:18.708Z,98572.57
2024-04-23T18:56:36.536Z,98575.69
2024-04-23T18:59:53.776Z,98570.13
2024-04-23T19:03:10.931Z,98569.73
2024-04-23T19:06:28.587Z,98579.31
2024-04-23T19:09:47.931Z,98569.92
2024-04-23T19:13:05.159Z,98569.19
2024-04-23T19:16:22.739Z,98554.92
2024-04-23T19:19:39.855Z,98549.78
2024-04-23T19:22:56.760Z,98547.75
2024-04-23T19:26:14.115Z,98547.61
2024-04-23T19:29:31.317Z,98547.48
2024-04-23T19:32:49.184Z,98550.06
2024-04-23T19:36:08.474Z,98537.56
2024-04-23T19:39:26.207Z,98546.30
2024-04-23T19:42:43.788Z,98536.28
2024-04-23T19:46:01.126Z,98533.16
2024-04-23T19:49:18.304Z,98519.72
2024-04-23T19:52:35.451Z,98524.06
2024-04-23T19:55:54.463Z,98520.33
2024-04-23T19:59:12.518Z,98518.59
2024-04-23T20:02:29.882Z,98509.09
2024-04-23T20:05:47.104Z,98503.58
2024-04-23T20:09:04.318Z,98498.45
2024-04-23T20:12:21.464Z,98485.63
2024-04-23T20:15:38.712Z,98479.10
2024-04-23T20:18:56.214Z,98479.72
2024-04-23T20:22:13.617Z,98471.02
2024-04-23T20:25:30.931Z,98468.73
2024-04-23T20:28:48.149Z,98453.24
2024-04-23T20:32:05.631Z,98448.98
2024-04-23T20:35:22.848Z,98447.61
2024-04-23T20:38:40.062Z,98448.45
2024-04-23T20:41:57.235Z,98442.67
2024-04-23T20:45:16.102Z,98442.05
2024-04-23T20:48:33.472Z,98437.50
2024-04-23T20:51:50.915Z,98443.48
2024-04-23T20:55:08.160Z,98442.97
2024-04-23T20:58:25.869Z,98435.94
2024-04-23T21:01:43.148Z,98438.88
2024-04-23T21:05:00.578Z,98436.13
2024-04-23T21:08:18.611Z,98434.16
2024-04-23T21:11:37.461Z,98430.49
2024-04-23T21:14:54.919Z,98430.16
2024-04-23T21:18:12.629Z,98426.76
2024-04-23T21:21:31.244Z,98425.30
2024-04-23T21:24:48.472Z,98414.83
2024-04-23T21:28:05.605Z,98410.09
2024-04-23T21:31:22.993Z,98410.09
2024-04-23T21:34:40.668Z,98415.02
2024-04-23T21:37:57.898Z,98405.08
2024-04-23T21:41:17.322Z,98397.59
2024-04-23T21:44:34.689Z,98390.14
2024-04-23T21:47:52.211Z,98385.02
2024-04-23T21:51:16.477Z,98369.20
2024-04-23T21:54:33.661Z,98372.34
2024-04-23T21:57:51.888Z,98367.22
2024-04-23T22:01:10.823Z,98368.52
2024-04-23T22:04:28.575Z,98364.52
2024-04-23T22:07:50.636Z,98360.61
2024-04-23T22:11:07.995Z,98346.14
2024-04-23T22:14:25.904Z,98333.55
2024-04-23T22:17:44.162Z,98334.55
2024-04-23T22:21:01.525Z,98327.72
2024-04-23T22:24:19.234Z,98331.47
2024-04-23T22:27:36.328Z,98305.25
2024-04-23T22:30:53.677Z,98313.34
2024-04-23T22:34:12.046Z,98298.77
2024-04-23T22:37:29.360Z,98294.42
2024-04-23T22:40:46.508Z,98286.80
2024-04-23T22:44:03.956Z,98290.51
2024-04-23T22:47:23.092Z,98287.22
2024-04-23T22:50:40.330Z,98286.89
2024-04-23T22:53:57.528Z,98280.91
2024-04-23T22:57:15.049Z,98271.97
2024-04-23T23:00:32.411Z,98276.90
2024-04-23T23:03:49.431Z,98279.09
2024-04-23T23:07:06.911Z,98279.09
2024-04-23T23:10:23.970Z,98262.66
2024-04-23T23:13:41.115Z,98259.36
2024-04-23T23:16:58.235Z,98260.75
2024-04-23T23:20:17.113Z,98262.09
2024-04-23T23:23:34.227Z,98257.11
2024-04-23T23:26:49.016Z,98257.28
2024-04-23T23:30:05.907Z,98243.36
2024-04-23T23:33:23.063Z,98232.26
2024-04-23T23:36:40.383Z,98216.63
2024-04-23T23:39:57.537Z,98202.38
2024-04-23T23:43:14.743Z,98200.00
2024-04-23T23:46:31.495Z,98193.73
2024-04-23T23:49:48.594Z,98189.09
2024-04-23T23:53:05.902Z,98194.08
2024-04-23T23:56:23.119Z,98189.93
2024-04-23T23:59:40.417Z,98180.31
